Airfield :
LOGIN :

Register | Disclaimer

   EN    FR    IT 

 










Legend :    VFR   Marginal VFR   IFR   Intensive IFR   Very Intensive IFR
Visi :
Ceiling :
>= 8 km
>= 3000ft
5 to 8 km
1000 to 3000 ft
1500m to 5 km
500 to 1000 ft
800 to 1500m
200 to 500 ft
< 800m
< 200 ft
Symbols :   Thunderstorms  Fog  Heavy snow  Heavy precipitations  Wind > 20 kt
SIGMETs :     Misc.  Thunderstorms  Icing  Turbulence  Mountain Waves  Volcanic Ashes






- Airport Elevation : 863 ft
- IATA code : ZAZ


LEZG - Zaragoza Aragon

CURRENT METAR :
  • 210642Z 29015KT 7000 -RA BKN030 01/01 Q1026 RERASN

EXPIRED METARs :
  • 210630Z 29015KT 5000 RASN BR BKN020 BKN035 01/01 Q1026
  • 210600Z 29010KT 6000 RASN BKN020 02/02 Q1026
  • 210544Z 29011KT 5000 RASN BR BKN020 01/01 Q1026
  • 210530Z 30012KT 8000 -RASN SCT020 BKN035 02/02 Q1026
  • 210500Z 30009KT 9999 -RASN FEW025 SCT045 03/00 Q1026
  • 210430Z 31009KT 9999 -RADZ FEW030 SCT045 04/M00 Q1027
  • 210400Z 32013KT 9999 -RA FEW030 SCT045 04/M00 Q1027

TAF AMD TAF LEZG
Valid from the 21 at 06:00 until the 22 at 06:00 UTC


210601Z 2106/2206 30014KT 9999 FEW060 TX09/2114Z TN01/2106Z
TEMPO 2106/2111 4000 SNRA BKN020
TEMPO 2111/2206 4000 RA BKN020
BECMG 2112/2115 09016G26KT
BECMG 2200/2202 VRB04KT



MET'MAP, your aeronautical weather chart ! - Copyright ORBIFLY December 2007 - Disclaimer

ORBIFLY MET'MAP TEAM :

Programming & Development : Alexandra Zaïnal
Concept & original design : Baudouin d'Aumeries
Assistance for programming : Marc-Olivier Méhu
Technical & hardware support : Manuel Goepfert

Contact : metmap@orbifly.com




SOURCES & CREDITS :

   NOAA